Terminal Aerodrome Forecast
Issued by NWS Quad Cities IA IL

Home | Current Version | Previous Version | Text Only | Print | Product List | Glossary On
Versions: 1 2 3 4 5 6 7 8 9 10 11 12 13 14 15 16 17 18 19 20 21 22 23 24
281
FTUS43 KDVN 211730
TAFMLI
TAF
KMLI 211730Z 2118/2218 17009KT P6SM SCT035 SCT200
     FM220200 19007KT P6SM VCTS SCT040CB BKN120
      TEMPO 2202/2205 VRB20G35KT 2SM TSRA BKN025CB
     FM220900 23008KT P6SM BKN050
     FM221500 27010KT P6SM BKN120=

USA.gov is the U.S. government's official web portal to all federal, state and local government web resources and services.